Time;durP1;ratioP1;P1;durP2;ratioP2;P2;SDS_P1;SDS_P2;PMS_P1;PMS_P2;Temp;Humidity;BMP_temperature;BMP_pressure;BME280_temperature;BME280_humidity;BME280_pressure;Samples;Min_cycle;Max_cycle;Signal;HPM_P1;HPM_P2
2021/03/01 00:00:24;;;;;;;5.28;3.62;;;1.30;99.90;;;;;;2008867;70;21448;-75
2021/03/01 00:02:50;;;;;;;6.30;3.62;;;1.20;99.90;;;;;;1967654;72;21462;-76
2021/03/01 00:05:16;;;;;;;7.75;3.72;;;1.10;99.90;;;;;;2010648;70;21121;-76
2021/03/01 00:07:42;;;;;;;6.72;3.62;;;1.10;99.90;;;;;;2006934;70;21116;-75
2021/03/01 00:10:08;;;;;;;5.08;3.37;;;1.10;99.90;;;;;;1967731;72;21051;-75
2021/03/01 00:12:35;;;;;;;7.55;3.95;;;1.10;99.90;;;;;;2013244;70;21040;-75
2021/03/01 00:15:01;;;;;;;16.85;4.92;;;1.00;99.90;;;;;;2006445;70;21087;-75
2021/03/01 00:17:27;;;;;;;9.08;3.75;;;1.00;99.90;;;;;;2005525;70;21024;-75
2021/03/01 00:19:53;;;;;;;8.20;4.03;;;1.00;99.90;;;;;;1974683;72;21057;-75
2021/03/01 00:22:19;;;;;;;6.05;4.12;;;1.00;99.90;;;;;;1927469;73;21475;-75
2021/03/01 00:24:45;;;;;;;4.92;3.47;;;0.90;99.90;;;;;;2010824;70;21527;-74
2021/03/01 00:27:11;;;;;;;11.00;4.42;;;0.90;99.90;;;;;;2013220;70;21502;-75
2021/03/01 00:29:37;;;;;;;5.78;4.15;;;0.90;99.90;;;;;;1970471;72;21055;-75
2021/03/01 00:32:04;;;;;;;6.75;3.75;;;0.80;99.90;;;;;;1936269;73;21129;-75
2021/03/01 00:34:30;;;;;;;6.92;4.22;;;0.80;99.90;;;;;;1931961;73;21036;-74
2021/03/01 00:36:56;;;;;;;7.92;4.47;;;0.70;99.90;;;;;;2013591;70;21049;-75
2021/03/01 00:39:23;;;;;;;5.78;4.12;;;0.70;99.90;;;;;;2010295;71;21087;-75
2021/03/01 00:41:49;;;;;;;7.75;4.87;;;0.70;99.90;;;;;;2010482;70;21494;-75
2021/03/01 00:44:15;;;;;;;9.08;3.90;;;0.60;99.90;;;;;;2009524;70;21444;-75
2021/03/01 00:46:41;;;;;;;6.20;4.22;;;0.60;99.90;;;;;;2013645;70;21640;-75
2021/03/01 00:49:07;;;;;;;4.58;3.35;;;0.60;99.90;;;;;;2010268;70;21051;-75
2021/03/01 00:51:33;;;;;;;7.83;3.60;;;0.60;99.90;;;;;;2010257;70;21134;-75
2021/03/01 00:53:59;;;;;;;6.05;4.15;;;0.50;99.90;;;;;;2010282;70;21126;-75
2021/03/01 00:56:25;;;;;;;13.28;4.47;;;0.50;99.90;;;;;;2008673;70;21016;-75
2021/03/01 00:58:52;;;;;;;7.45;3.90;;;0.50;99.90;;;;;;2008982;70;21082;-75
2021/03/01 01:01:18;;;;;;;7.85;3.92;;;0.60;99.90;;;;;;2007827;70;21052;-75
2021/03/01 01:03:44;;;;;;;9.03;4.33;;;0.50;99.90;;;;;;2003428;70;21038;-75
2021/03/01 01:06:10;;;;;;;15.60;4.65;;;0.40;99.90;;;;;;2020746;71;21028;-75
2021/03/01 01:08:36;;;;;;;5.40;3.70;;;0.40;99.90;;;;;;2010830;70;21059;-74
2021/03/01 01:11:02;;;;;;;5.42;3.50;;;0.30;99.90;;;;;;2004976;70;21170;-74
2021/03/01 01:13:28;;;;;;;5.97;3.85;;;0.30;99.90;;;;;;2006949;70;21080;-75
2021/03/01 01:15:54;;;;;;;13.90;4.90;;;0.30;99.90;;;;;;2006186;70;21459;-75
2021/03/01 01:18:21;;;;;;;7.95;4.40;;;0.30;99.90;;;;;;2006939;70;21456;-75
2021/03/01 01:20:47;;;;;;;5.85;3.85;;;0.40;99.90;;;;;;2010380;70;21513;-75
2021/03/01 01:23:13;;;;;;;6.92;4.08;;;0.40;99.90;;;;;;2008914;70;21046;-75
2021/03/01 01:25:39;;;;;;;10.85;4.45;;;0.40;99.90;;;;;;2005752;70;21041;-75
2021/03/01 01:28:05;;;;;;;9.38;5.10;;;0.40;99.90;;;;;;1956909;72;21027;-75
2021/03/01 01:30:31;;;;;;;6.47;3.92;;;0.30;99.90;;;;;;2002550;70;21033;-75
2021/03/01 01:32:57;;;;;;;10.50;5.47;;;0.30;99.90;;;;;;1974104;72;21048;-75
2021/03/01 01:35:23;;;;;;;12.20;5.12;;;0.30;99.90;;;;;;2007252;70;21163;-74
2021/03/01 01:37:50;;;;;;;7.65;4.10;;;0.30;99.90;;;;;;1967095;72;21046;-75
2021/03/01 01:40:16;;;;;;;7.72;3.98;;;0.20;99.90;;;;;;2008642;70;21124;-75
2021/03/01 01:42:42;;;;;;;6.17;4.00;;;0.10;99.90;;;;;;2020566;71;21181;-75
2021/03/01 01:45:08;;;;;;;6.55;4.35;;;0.10;99.90;;;;;;2006969;70;21029;-75
2021/03/01 01:47:34;;;;;;;9.45;4.85;;;0.10;99.90;;;;;;2018134;70;21076;-75
2021/03/01 01:50:00;;;;;;;14.55;4.22;;;0.00;99.90;;;;;;2018612;70;21088;-75
2021/03/01 01:52:26;;;;;;;10.50;4.58;;;0.00;99.90;;;;;;2014825;70;21491;-75
2021/03/01 01:54:52;;;;;;;10.38;4.28;;;0.10;99.90;;;;;;2014956;70;21508;-75
2021/03/01 01:57:18;;;;;;;8.15;4.70;;;0.00;99.90;;;;;;2015852;70;21475;-75
2021/03/01 01:59:45;;;;;;;6.80;4.15;;;0.00;99.90;;;;;;2014174;70;21024;-75
2021/03/01 02:02:11;;;;;;;8.78;4.55;;;-0.10;99.90;;;;;;2010486;70;21056;-75
2021/03/01 02:04:37;;;;;;;8.50;5.05;;;-0.10;99.90;;;;;;2009365;70;21043;-75
2021/03/01 02:07:03;;;;;;;6.78;4.20;;;-0.10;99.90;;;;;;1962007;72;21121;-75
2021/03/01 02:09:29;;;;;;;6.05;4.28;;;-0.20;99.90;;;;;;2010964;70;21084;-75
2021/03/01 02:11:55;;;;;;;7.40;3.98;;;-0.10;99.90;;;;;;2018616;70;21064;-75
2021/03/01 02:14:21;;;;;;;4.97;3.70;;;-0.10;99.90;;;;;;2010140;70;21110;-75
2021/03/01 02:16:47;;;;;;;14.28;4.33;;;-0.10;99.90;;;;;;2017176;70;21162;-75
2021/03/01 02:19:14;;;;;;;7.15;4.05;;;-0.10;99.90;;;;;;2007935;70;21121;-75
2021/03/01 02:21:40;;;;;;;6.97;4.03;;;-0.10;99.90;;;;;;1974817;72;21047;-75
2021/03/01 02:24:06;;;;;;;5.55;3.72;;;-0.10;99.90;;;;;;1949649;74;21088;-75
2021/03/01 02:26:32;;;;;;;7.03;3.60;;;0.00;99.90;;;;;;1935298;74;21105;-75
2021/03/01 02:28:58;;;;;;;10.80;4.13;;;0.00;99.90;;;;;;2002765;70;21058;-74
2021/03/01 02:31:24;;;;;;;10.50;4.75;;;-0.10;99.90;;;;;;2010412;71;21133;-73
2021/03/01 02:33:50;;;;;;;6.90;3.67;;;-0.10;99.90;;;;;;2013750;70;21121;-73
2021/03/01 02:36:16;;;;;;;10.38;4.97;;;-0.20;99.90;;;;;;2009932;70;21412;-75
2021/03/01 02:38:42;;;;;;;7.45;4.22;;;-0.30;99.90;;;;;;2002647;70;21483;-74
2021/03/01 02:41:09;;;;;;;8.08;4.30;;;-0.20;99.90;;;;;;2013382;70;21455;-74
2021/03/01 02:43:35;;;;;;;6.85;3.80;;;-0.20;99.90;;;;;;2010393;70;21486;-75
2021/03/01 02:46:01;;;;;;;9.28;4.72;;;-0.20;99.90;;;;;;2009000;70;21020;-74
2021/03/01 02:48:27;;;;;;;11.78;5.00;;;-0.20;99.90;;;;;;2004198;70;21101;-75
2021/03/01 02:50:53;;;;;;;11.28;5.10;;;-0.30;99.90;;;;;;1966242;72;21145;-74
2021/03/01 02:53:19;;;;;;;6.35;4.40;;;-0.40;99.90;;;;;;2010428;71;21048;-75
2021/03/01 02:55:47;;;;;;;8.50;4.97;;;-0.40;99.90;;;;;;2010394;70;21036;-74
2021/03/01 02:58:13;;;;;;;13.75;4.90;;;-0.40;99.90;;;;;;2010305;71;21377;-75
2021/03/01 03:00:39;;;;;;;9.83;4.83;;;-0.40;99.90;;;;;;2009872;70;21471;-74
2021/03/01 03:03:05;;;;;;;5.05;3.67;;;-0.50;99.90;;;;;;2008335;70;21113;-74
2021/03/01 03:05:31;;;;;;;9.78;4.28;;;-0.40;99.90;;;;;;2015188;71;21079;-74
2021/03/01 03:07:58;;;;;;;6.72;4.00;;;-0.50;99.90;;;;;;2010385;70;21017;-75
2021/03/01 03:10:24;;;;;;;7.10;4.03;;;-0.50;99.90;;;;;;2010417;71;21027;-74
2021/03/01 03:12:50;;;;;;;8.18;4.80;;;-0.40;99.90;;;;;;2010298;70;21048;-77
2021/03/01 03:15:16;;;;;;;9.53;5.12;;;-0.50;99.90;;;;;;2010285;70;21043;-74
2021/03/01 03:17:42;;;;;;;5.95;4.25;;;-0.50;99.90;;;;;;2000386;70;21161;-75
2021/03/01 03:20:08;;;;;;;7.40;4.67;;;-0.50;99.90;;;;;;1964269;72;21037;-77
2021/03/01 03:22:34;;;;;;;8.15;4.92;;;-0.50;99.90;;;;;;2007014;70;21125;-75
2021/03/01 03:25:00;;;;;;;9.88;4.90;;;-0.50;99.90;;;;;;2010340;70;21044;-75
2021/03/01 03:27:27;;;;;;;7.10;4.30;;;-0.60;99.90;;;;;;2010314;70;21052;-75
2021/03/01 03:29:53;;;;;;;12.13;4.83;;;-0.60;99.90;;;;;;2010376;71;21130;-76
2021/03/01 03:32:19;;;;;;;6.30;4.62;;;-0.60;99.90;;;;;;2006919;70;21048;-75
2021/03/01 03:34:45;;;;;;;7.47;4.22;;;-0.60;99.90;;;;;;2010320;70;21063;-75
2021/03/01 03:37:11;;;;;;;14.10;4.33;;;-0.50;99.90;;;;;;2010614;71;21132;-75
2021/03/01 03:39:37;;;;;;;9.38;4.35;;;-0.60;99.90;;;;;;2012654;70;21059;-76
2021/03/01 03:42:05;;;;;;;6.58;4.35;;;-0.50;99.90;;;;;;2015692;70;21039;-76
2021/03/01 03:44:31;;;;;;;6.90;4.22;;;-0.70;99.90;;;;;;2011312;71;21507;-74
2021/03/01 03:46:57;;;;;;;11.10;4.80;;;-0.60;99.90;;;;;;2010241;71;21477;-76
2021/03/01 03:49:23;;;;;;;6.33;4.10;;;-0.60;99.90;;;;;;2003488;70;21450;-75
2021/03/01 03:51:50;;;;;;;9.63;4.15;;;-0.60;99.90;;;;;;2021495;70;21120;-75
2021/03/01 03:54:16;;;;;;;6.08;4.35;;;-0.70;99.90;;;;;;2007611;70;21059;-76
2021/03/01 03:56:42;;;;;;;4.35;3.47;;;-0.70;99.90;;;;;;2006553;70;21013;-76
2021/03/01 03:59:08;;;;;;;7.50;4.12;;;-0.70;99.90;;;;;;1962439;72;21139;-76
2021/03/01 04:01:34;;;;;;;9.53;4.80;;;-0.80;99.90;;;;;;2006238;70;21034;-76
2021/03/01 04:04:00;;;;;;;5.58;4.05;;;-0.70;99.90;;;;;;2010393;70;21055;-75
2021/03/01 04:06:26;;;;;;;5.37;3.70;;;-0.60;99.90;;;;;;2010094;70;21017;-75
2021/03/01 04:08:52;;;;;;;5.75;4.37;;;-0.70;99.90;;;;;;2013081;70;21140;-75
2021/03/01 04:11:18;;;;;;;6.17;4.20;;;-0.80;99.90;;;;;;2007507;70;21034;-74
2021/03/01 04:13:45;;;;;;;9.58;4.90;;;-0.80;99.90;;;;;;2001062;70;21047;-76
2021/03/01 04:16:11;;;;;;;8.68;4.55;;;-0.70;99.90;;;;;;2010245;70;21039;-74
2021/03/01 04:18:37;;;;;;;11.78;4.25;;;-0.80;99.90;;;;;;2005219;70;21047;-75
2021/03/01 04:21:03;;;;;;;6.53;4.15;;;-0.70;99.90;;;;;;1968002;72;21117;-74
2021/03/01 04:23:29;;;;;;;6.35;4.12;;;-0.70;99.90;;;;;;1935103;73;21196;-74
2021/03/01 04:25:55;;;;;;;8.28;4.55;;;-0.80;99.90;;;;;;2012758;70;21132;-75
2021/03/01 04:28:21;;;;;;;7.62;4.42;;;-0.80;99.90;;;;;;2028316;71;21589;-75
2021/03/01 04:30:47;;;;;;;7.33;4.00;;;-0.70;99.90;;;;;;2019938;70;21423;-75
2021/03/01 04:33:14;;;;;;;5.92;3.92;;;-0.80;99.90;;;;;;2006881;70;21553;-75
2021/03/01 04:35:40;;;;;;;8.60;4.45;;;-0.80;99.90;;;;;;2008733;71;21463;-75
2021/03/01 04:38:06;;;;;;;7.92;4.62;;;-0.80;99.90;;;;;;2008389;70;21058;-77
2021/03/01 04:40:32;;;;;;;12.55;5.00;;;-0.80;99.90;;;;;;2005604;70;21153;-75
2021/03/01 04:42:58;;;;;;;10.63;4.67;;;-0.80;99.90;;;;;;2006632;70;21028;-75
2021/03/01 04:45:25;;;;;;;7.15;4.33;;;-0.80;99.90;;;;;;2003363;70;21524;-75
2021/03/01 04:47:51;;;;;;;7.35;4.62;;;-0.80;99.90;;;;;;2003434;70;21042;-74
2021/03/01 04:50:17;;;;;;;7.60;4.60;;;-0.70;99.90;;;;;;2012962;70;21079;-74
2021/03/01 04:52:43;;;;;;;8.10;4.05;;;-0.80;99.90;;;;;;2013105;70;21024;-74
2021/03/01 04:55:09;;;;;;;8.80;4.25;;;-0.80;99.90;;;;;;2004730;70;21131;-74
2021/03/01 04:57:35;;;;;;;7.78;4.30;;;-0.90;99.90;;;;;;2012619;70;21445;-75
2021/03/01 05:00:01;;;;;;;6.87;4.80;;;-0.80;99.90;;;;;;2006968;70;21561;-75
2021/03/01 05:02:27;;;;;;;8.98;4.87;;;-0.90;99.90;;;;;;2010083;70;21467;-74
2021/03/01 05:04:54;;;;;;;7.83;4.55;;;-0.90;99.90;;;;;;2026909;71;21504;-76
2021/03/01 05:07:20;;;;;;;11.15;4.55;;;-0.80;99.90;;;;;;2009826;70;21548;-75
2021/03/01 05:09:48;;;;;;;8.65;4.72;;;-0.80;99.90;;;;;;2003316;70;21129;-76
2021/03/01 05:12:14;;;;;;;6.33;4.47;;;-0.80;99.90;;;;;;2008728;70;21059;-74
2021/03/01 05:14:40;;;;;;;8.05;4.92;;;-0.90;99.90;;;;;;1962483;72;21064;-74
2021/03/01 05:17:06;;;;;;;10.30;4.50;;;-0.90;99.90;;;;;;2010426;70;21460;-73
2021/03/01 05:19:32;;;;;;;12.75;4.85;;;-0.90;99.90;;;;;;2012831;70;21525;-75
2021/03/01 05:21:58;;;;;;;16.90;4.37;;;-1.00;99.90;;;;;;2010576;70;21452;-76
2021/03/01 05:24:24;;;;;;;11.33;4.40;;;-1.00;99.90;;;;;;2005597;70;21431;-76
2021/03/01 05:26:52;;;;;;;9.78;5.05;;;-1.00;99.90;;;;;;2016292;70;21467;-74
2021/03/01 05:29:18;;;;;;;10.40;5.45;;;-1.10;99.90;;;;;;2009982;70;21059;-76
2021/03/01 05:31:44;;;;;;;8.70;4.60;;;-1.10;99.90;;;;;;2010294;70;21137;-77
2021/03/01 05:34:10;;;;;;;10.68;5.25;;;-1.10;99.90;;;;;;2006697;70;21047;-76
2021/03/01 05:36:37;;;;;;;6.12;3.98;;;-1.10;99.90;;;;;;2006943;70;21024;-76
2021/03/01 05:39:03;;;;;;;7.87;4.53;;;-1.20;99.90;;;;;;2008065;70;21090;-76
2021/03/01 05:41:29;;;;;;;7.30;4.60;;;-1.20;99.90;;;;;;1966252;72;21128;-76
2021/03/01 05:43:55;;;;;;;7.22;4.67;;;-1.20;99.90;;;;;;2008761;70;21040;-77
2021/03/01 05:46:21;;;;;;;8.30;4.87;;;-1.20;99.90;;;;;;2010663;71;21035;-74
2021/03/01 05:48:47;;;;;;;7.08;4.37;;;-1.20;99.90;;;;;;2000545;70;21021;-75
2021/03/01 05:51:13;;;;;;;11.35;4.87;;;-1.20;99.90;;;;;;1965557;72;21048;-76
2021/03/01 05:53:39;;;;;;;12.78;4.87;;;-1.20;99.90;;;;;;2009440;70;21176;-74
2021/03/01 05:56:06;;;;;;;6.73;4.97;;;-1.20;99.90;;;;;;2019097;70;21472;-75
2021/03/01 05:58:32;;;;;;;9.35;4.78;;;-1.10;99.90;;;;;;2010367;70;21148;-75
2021/03/01 06:00:58;;;;;;;11.93;4.58;;;-1.10;99.90;;;;;;2011125;70;21046;-75
2021/03/01 06:03:24;;;;;;;9.20;4.60;;;-1.20;99.90;;;;;;1962632;72;21020;-75
2021/03/01 06:05:52;;;;;;;9.75;5.40;;;-1.20;99.90;;;;;;2006644;70;21042;-75
2021/03/01 06:08:18;;;;;;;9.18;4.67;;;-1.20;99.90;;;;;;2011468;70;21075;-75
2021/03/01 06:10:44;;;;;;;7.10;4.67;;;-1.20;99.90;;;;;;2010663;70;21121;-74
2021/03/01 06:13:10;;;;;;;6.90;4.58;;;-1.20;99.90;;;;;;1966358;72;21048;-75
2021/03/01 06:15:37;;;;;;;6.35;4.70;;;-1.20;99.90;;;;;;2006410;70;21021;-74
2021/03/01 06:18:03;;;;;;;11.65;4.90;;;-1.20;99.90;;;;;;2002532;70;21031;-76
2021/03/01 06:20:29;;;;;;;7.15;4.60;;;-1.20;99.90;;;;;;2009897;70;21048;-76
2021/03/01 06:22:55;;;;;;;7.55;4.78;;;-1.20;99.90;;;;;;2009981;71;21443;-76
2021/03/01 06:25:21;;;;;;;9.58;5.47;;;-1.20;99.90;;;;;;2007275;70;21564;-75
2021/03/01 06:27:47;;;;;;;4.87;4.12;;;-1.20;99.90;;;;;;2011610;70;21412;-75
2021/03/01 06:30:14;;;;;;;11.08;5.72;;;-1.20;99.90;;;;;;2016626;71;21324;-77
2021/03/01 06:32:40;;;;;;;9.25;5.47;;;-1.20;99.90;;;;;;2009845;71;21093;-75
2021/03/01 06:35:06;;;;;;;10.93;4.83;;;-1.20;99.90;;;;;;2009663;70;21157;-75
2021/03/01 06:37:32;;;;;;;6.00;4.40;;;-1.10;99.90;;;;;;2009824;71;21040;-76
2021/03/01 06:39:58;;;;;;;7.45;4.47;;;-1.00;99.90;;;;;;2011269;70;21104;-74
2021/03/01 06:42:24;;;;;;;9.08;5.53;;;-1.00;99.90;;;;;;1964870;72;21133;-76
2021/03/01 06:44:50;;;;;;;14.55;6.10;;;-1.00;99.90;;;;;;2009633;70;21059;-75
2021/03/01 06:47:16;;;;;;;11.75;5.22;;;-0.90;99.90;;;;;;2009226;70;21052;-76
2021/03/01 06:49:45;;;;;;;7.72;4.95;;;-0.90;99.90;;;;;;2018590;70;21163;-75
2021/03/01 06:52:10;;;;;;;7.62;4.58;;;-0.90;99.90;;;;;;2020246;70;21084;-76
2021/03/01 06:54:37;;;;;;;10.38;6.10;;;-0.90;99.90;;;;;;2009750;70;21142;-76
2021/03/01 06:57:03;;;;;;;10.98;5.37;;;-0.80;99.90;;;;;;2006001;70;21042;-76
2021/03/01 06:59:29;;;;;;;12.07;5.22;;;-0.90;99.90;;;;;;2012891;70;21540;-76
2021/03/01 07:01:56;;;;;;;7.67;5.08;;;-0.80;99.90;;;;;;2002775;70;21525;-75
2021/03/01 07:04:22;;;;;;;9.80;5.20;;;-0.80;99.90;;;;;;2020424;70;21121;-76
2021/03/01 07:06:48;;;;;;;8.98;4.95;;;-0.80;99.90;;;;;;2016495;70;21080;-77
2021/03/01 07:09:14;;;;;;;9.78;5.60;;;-0.70;99.90;;;;;;1965207;72;21409;-75
2021/03/01 07:11:40;;;;;;;12.90;5.80;;;-0.60;99.90;;;;;;2014001;70;21036;-75
2021/03/01 07:14:07;;;;;;;8.13;5.35;;;-0.60;99.90;;;;;;2010046;71;21167;-75
2021/03/01 07:16:33;;;;;;;11.75;4.60;;;-0.50;99.90;;;;;;2009893;71;21153;-75
2021/03/01 07:18:59;;;;;;;10.25;5.17;;;-0.50;99.90;;;;;;2019422;70;21170;-76
2021/03/01 07:21:25;;;;;;;15.55;5.55;;;-0.40;99.90;;;;;;2015986;70;21036;-73
2021/03/01 07:23:51;;;;;;;12.75;5.87;;;-0.30;99.90;;;;;;2010270;70;21109;-74
2021/03/01 07:26:17;;;;;;;15.28;5.97;;;-0.30;99.90;;;;;;2004967;70;21088;-76
2021/03/01 07:28:43;;;;;;;10.15;6.05;;;-0.20;99.90;;;;;;2007034;70;21051;-74
2021/03/01 07:31:09;;;;;;;13.25;6.37;;;-0.20;99.90;;;;;;2026421;71;21060;-76
2021/03/01 07:33:36;;;;;;;8.98;5.75;;;0.00;99.90;;;;;;2010177;71;21036;-75
2021/03/01 07:36:03;;;;;;;8.08;5.22;;;0.10;99.90;;;;;;2008146;70;21044;-75
2021/03/01 07:38:29;;;;;;;11.38;5.45;;;0.20;99.90;;;;;;2000587;70;21042;-75
2021/03/01 07:40:55;;;;;;;9.98;5.55;;;0.20;99.90;;;;;;2022856;71;21553;-76
2021/03/01 07:43:22;;;;;;;10.38;5.65;;;0.20;99.90;;;;;;2016939;70;21508;-74
2021/03/01 07:45:48;;;;;;;10.88;5.62;;;0.30;99.90;;;;;;2006859;70;21468;-76
2021/03/01 07:48:14;;;;;;;10.25;5.20;;;0.30;99.90;;;;;;1968243;72;21483;-76
2021/03/01 07:50:40;;;;;;;6.28;4.85;;;0.50;99.90;;;;;;1999033;70;21111;-75
2021/03/01 07:53:06;;;;;;;10.65;5.25;;;0.70;99.90;;;;;;2021361;70;21168;-75
2021/03/01 07:55:32;;;;;;;13.18;6.60;;;0.70;99.90;;;;;;2008205;70;21031;-75
2021/03/01 07:57:58;;;;;;;14.75;6.67;;;0.80;99.90;;;;;;2009575;70;21109;-75
2021/03/01 08:00:25;;;;;;;8.55;5.53;;;0.80;99.90;;;;;;2010249;70;21129;-75
2021/03/01 08:02:51;;;;;;;9.35;6.22;;;0.90;99.90;;;;;;2008032;70;21059;-75
2021/03/01 08:05:17;;;;;;;21.52;6.25;;;1.10;99.90;;;;;;1962618;72;21453;-75
2021/03/01 08:07:43;;;;;;;14.35;6.42;;;1.20;99.90;;;;;;2006108;70;21377;-75
2021/03/01 08:10:09;;;;;;;16.77;6.22;;;1.40;99.90;;;;;;2006627;70;21545;-75
2021/03/01 08:12:35;;;;;;;10.78;6.42;;;1.50;99.90;;;;;;2010006;71;21043;-75
2021/03/01 08:15:03;;;;;;;17.95;6.42;;;1.70;99.90;;;;;;2011411;70;21125;-74
2021/03/01 08:17:29;;;;;;;11.25;5.83;;;1.80;99.90;;;;;;2007784;70;21560;-77
2021/03/01 08:19:56;;;;;;;14.55;6.67;;;2.00;99.90;;;;;;2008584;70;21116;-76
2021/03/01 08:22:22;;;;;;;10.18;5.60;;;2.10;99.90;;;;;;2028468;71;21036;-75
2021/03/01 08:24:48;;;;;;;12.45;6.08;;;2.20;99.90;;;;;;2010043;70;21008;-75
2021/03/01 08:27:14;;;;;;;9.90;5.85;;;2.30;99.90;;;;;;2005942;70;21056;-75
2021/03/01 08:29:40;;;;;;;14.38;5.37;;;2.40;99.90;;;;;;1967374;72;21040;-75
2021/03/01 08:32:08;;;;;;;9.95;5.92;;;2.70;99.90;;;;;;2009581;70;21040;-74
2021/03/01 08:34:34;;;;;;;13.40;6.05;;;2.90;99.90;;;;;;1963423;73;21059;-75
2021/03/01 08:37:00;;;;;;;12.10;6.55;;;3.20;99.90;;;;;;2009796;70;21479;-76
2021/03/01 08:39:27;;;;;;;17.35;7.20;;;3.40;99.90;;;;;;1999633;70;21054;-82
2021/03/01 08:41:53;;;;;;;15.88;6.85;;;3.70;99.90;;;;;;1971065;72;21150;-76
2021/03/01 08:44:19;;;;;;;17.80;6.67;;;3.90;99.90;;;;;;1987284;71;21046;-75
2021/03/01 08:46:45;;;;;;;13.98;5.90;;;4.20;99.90;;;;;;1986948;72;21064;-74
2021/03/01 08:49:11;;;;;;;11.20;5.75;;;4.60;99.90;;;;;;1973925;72;21032;-74
2021/03/01 08:51:37;;;;;;;11.83;5.72;;;5.00;99.90;;;;;;1970785;72;21062;-75
2021/03/01 08:54:03;;;;;;;10.98;5.28;;;5.10;99.90;;;;;;1973412;72;21110;-75
2021/03/01 08:56:30;;;;;;;10.25;6.17;;;5.20;99.90;;;;;;1987215;72;21487;-76
2021/03/01 08:58:56;;;;;;;9.05;5.70;;;5.70;99.90;;;;;;1966462;72;21527;-75
2021/03/01 09:01:22;;;;;;;11.90;5.47;;;6.00;99.90;;;;;;1975681;72;21039;-75
2021/03/01 09:03:48;;;;;;;11.33;5.40;;;6.20;99.90;;;;;;1978204;72;21493;-76
2021/03/01 09:06:14;;;;;;;14.75;6.45;;;6.90;99.90;;;;;;1982495;72;21132;-76
2021/03/01 09:08:40;;;;;;;9.15;5.47;;;7.10;99.90;;;;;;1974251;72;21052;-75
2021/03/01 09:11:06;;;;;;;9.50;5.47;;;7.40;99.90;;;;;;1974129;73;21129;-76
2021/03/01 09:13:32;;;;;;;12.37;6.25;;;7.70;99.90;;;;;;1973425;72;21039;-75
2021/03/01 09:15:58;;;;;;;11.15;6.28;;;7.50;99.90;;;;;;1973025;72;21124;-75
2021/03/01 09:18:25;;;;;;;11.85;5.62;;;7.60;99.90;;;;;;1970782;72;21206;-75
2021/03/01 09:20:51;;;;;;;14.30;5.37;;;7.70;99.90;;;;;;1967086;72;21058;-76
2021/03/01 09:23:17;;;;;;;10.70;5.85;;;7.50;99.90;;;;;;1974099;73;21137;-75
2021/03/01 09:25:43;;;;;;;10.80;5.58;;;7.50;99.90;;;;;;1969434;72;21615;-76
2021/03/01 09:28:09;;;;;;;11.00;5.50;;;8.20;99.90;;;;;;1980161;72;21439;-76
2021/03/01 09:30:36;;;;;;;14.83;5.67;;;9.00;99.90;;;;;;1972333;72;21588;-75
2021/03/01 09:33:02;;;;;;;15.60;6.40;;;9.40;99.90;;;;;;1986217;72;21137;-76
2021/03/01 09:35:28;;;;;;;10.18;4.92;;;9.60;99.90;;;;;;1974058;72;21129;-76
2021/03/01 09:37:54;;;;;;;9.10;5.22;;;9.50;99.90;;;;;;1963142;72;21058;-75
2021/03/01 09:40:20;;;;;;;6.62;3.77;;;9.70;99.90;;;;;;1973185;72;21067;-76
2021/03/01 09:42:46;;;;;;;9.60;4.28;;;10.20;99.90;;;;;;1981846;72;21112;-75
2021/03/01 09:45:12;;;;;;;15.45;4.08;;;10.00;99.90;;;;;;1974083;73;21055;-75
2021/03/01 09:47:38;;;;;;;5.08;3.30;;;9.50;99.90;;;;;;1970775;72;21063;-76
2021/03/01 09:50:04;;;;;;;8.40;4.12;;;9.70;99.90;;;;;;1982261;72;21140;-75
2021/03/01 09:52:31;;;;;;;6.40;3.83;;;9.90;99.90;;;;;;1977154;72;21031;-76
2021/03/01 09:54:57;;;;;;;9.85;4.08;;;10.30;99.90;;;;;;1973208;72;21062;-77
2021/03/01 09:57:23;;;;;;;6.92;3.55;;;10.90;99.90;;;;;;1977325;72;21539;-76
2021/03/01 09:59:49;;;;;;;6.45;2.77;;;10.80;99.90;;;;;;1971332;72;21501;-75
2021/03/01 10:02:15;;;;;;;11.93;3.30;;;10.80;99.90;;;;;;1974836;73;21031;-76
2021/03/01 10:04:42;;;;;;;5.55;3.02;;;11.10;99.90;;;;;;1975163;72;21158;-77
2021/03/01 10:07:08;;;;;;;8.43;3.17;;;11.50;99.90;;;;;;1967942;72;21023;-75
2021/03/01 10:09:34;;;;;;;5.83;2.65;;;11.70;99.90;;;;;;1985324;72;21062;-77
2021/03/01 10:12:00;;;;;;;5.20;2.90;;;12.00;99.90;;;;;;1976152;72;21140;-76
2021/03/01 10:14:26;;;;;;;11.18;3.12;;;12.40;99.90;;;;;;1974822;72;21075;-76
2021/03/01 10:16:54;;;;;;;5.87;2.83;;;12.40;99.70;;;;;;1974534;72;21583;-76
2021/03/01 10:19:24;;;;;;;11.22;2.87;;;12.40;99.90;;;;;;1982481;72;21079;-75
2021/03/01 10:21:48;;;;;;;4.25;2.15;;;13.00;97.40;;;;;;1966155;72;21254;-76
2021/03/01 10:24:14;;;;;;;2.87;2.00;;;13.10;93.70;;;;;;1972767;72;21108;-76
2021/03/01 10:26:40;;;;;;;6.35;2.37;;;13.20;93.00;;;;;;1971229;72;21032;-75
2021/03/01 10:29:06;;;;;;;3.05;1.87;;;13.40;91.30;;;;;;1971407;72;21124;-75
2021/03/01 10:31:32;;;;;;;4.75;1.72;;;13.50;90.00;;;;;;1974965;72;21108;-75
2021/03/01 10:33:58;;;;;;;4.83;2.62;;;13.40;84.50;;;;;;1967857;72;21047;-75
2021/03/01 10:36:24;;;;;;;2.50;1.90;;;13.10;79.60;;;;;;1967854;72;21037;-76
2021/03/01 10:38:51;;;;;;;4.08;2.08;;;13.10;79.80;;;;;;1971680;72;21071;-76
2021/03/01 10:41:17;;;;;;;4.20;2.35;;;13.40;79.40;;;;;;1974092;72;21231;-77
2021/03/01 10:43:43;;;;;;;3.90;1.87;;;13.80;76.90;;;;;;1974330;72;21071;-75
2021/03/01 10:46:09;;;;;;;3.90;2.02;;;13.90;76.00;;;;;;1974868;72;21064;-75
2021/03/01 10:48:35;;;;;;;5.10;1.80;;;14.40;72.30;;;;;;1974633;72;21059;-76
2021/03/01 10:51:01;;;;;;;11.78;2.15;;;14.00;70.20;;;;;;1965003;72;21192;-78
2021/03/01 10:53:27;;;;;;;2.45;1.75;;;14.10;69.50;;;;;;1977850;72;21145;-76
2021/03/01 10:55:53;;;;;;;3.40;1.65;;;14.00;67.80;;;;;;1964777;72;21127;-79
2021/03/01 10:58:19;;;;;;;2.65;1.62;;;14.40;65.30;;;;;;1971156;72;21067;-78
2021/03/01 11:00:46;;;;;;;3.35;1.70;;;14.50;63.20;;;;;;1974879;73;21540;-78
2021/03/01 11:03:12;;;;;;;3.15;1.75;;;14.50;61.00;;;;;;1963253;72;21550;-78
2021/03/01 11:05:43;;;;;;;3.17;1.80;;;14.30;59.70;;;;;;1964385;72;21454;-78
2021/03/01 11:08:06;;;;;;;6.50;1.95;;;14.70;60.70;;;;;;1973777;72;21145;-79
2021/03/01 11:10:32;;;;;;;2.85;1.90;;;15.10;58.30;;;;;;1971293;72;21069;-78
2021/03/01 11:12:58;;;;;;;3.40;1.80;;;14.50;59.10;;;;;;1979835;72;21075;-79
2021/03/01 11:15:24;;;;;;;3.00;1.50;;;14.60;58.70;;;;;;1974385;73;21090;-78
2021/03/01 11:17:50;;;;;;;3.52;1.70;;;15.30;56.70;;;;;;1974537;72;21099;-79
2021/03/01 11:20:16;;;;;;;2.08;1.50;;;15.40;56.70;;;;;;1969222;72;21147;-78
2021/03/01 11:22:42;;;;;;;2.77;1.35;;;15.50;55.00;;;;;;1975904;72;21511;-78
2021/03/01 11:25:09;;;;;;;3.95;1.35;;;15.90;55.10;;;;;;1991421;72;21395;-78
2021/03/01 11:27:35;;;;;;;2.67;1.30;;;15.60;53.30;;;;;;1969072;72;21453;-78
2021/03/01 11:30:01;;;;;;;6.87;1.80;;;15.70;53.90;;;;;;1982080;72;21525;-78
2021/03/01 11:32:27;;;;;;;2.90;1.25;;;15.50;53.40;;;;;;1968950;72;21031;-78
2021/03/01 11:34:53;;;;;;;2.67;1.57;;;16.20;52.60;;;;;;1981195;72;21059;-77
2021/03/01 11:37:19;;;;;;;2.12;1.62;;;15.60;52.30;;;;;;1974221;72;21102;-78
2021/03/01 11:39:45;;;;;;;2.55;1.35;;;15.50;52.00;;;;;;1974480;72;21051;-76
2021/03/01 11:42:12;;;;;;;8.20;1.60;;;15.60;52.50;;;;;;1979506;72;21201;-77
2021/03/01 11:44:39;;;;;;;2.25;1.27;;;15.90;52.50;;;;;;1971799;72;21098;-76
2021/03/01 11:47:05;;;;;;;3.60;1.45;;;16.60;51.50;;;;;;1965350;72;21068;-82
2021/03/01 11:49:31;;;;;;;2.30;1.15;;;16.20;51.20;;;;;;1939664;72;21103;-76
2021/03/01 11:51:57;;;;;;;6.37;1.37;;;16.40;51.50;;;;;;1984664;72;21051;-76
2021/03/01 11:54:23;;;;;;;2.35;1.30;;;17.10;51.00;;;;;;1973304;72;21095;-76
2021/03/01 11:56:49;;;;;;;3.12;1.37;;;16.70;50.90;;;;;;1976746;72;21027;-77
2021/03/01 11:59:15;;;;;;;1.45;1.20;;;16.70;50.70;;;;;;1972526;72;21132;-77
2021/03/01 12:01:41;;;;;;;3.50;1.65;;;16.90;51.40;;;;;;1983358;72;21043;-77
2021/03/01 12:04:10;;;;;;;4.12;1.57;;;17.50;50.50;;;;;;1975014;72;21149;-77
2021/03/01 12:06:35;;;;;;;1.57;1.22;;;17.60;49.60;;;;;;1974440;72;21045;-76
2021/03/01 12:09:02;;;;;;;2.70;1.20;;;16.90;51.20;;;;;;1974423;72;21136;-76
2021/03/01 12:11:28;;;;;;;2.65;1.40;;;16.90;52.80;;;;;;1970309;72;21058;-76
2021/03/01 12:13:54;;;;;;;4.30;1.50;;;18.10;51.00;;;;;;1978088;72;21110;-76
2021/03/01 12:16:20;;;;;;;2.00;1.40;;;17.50;51.70;;;;;;1976654;72;21035;-76
2021/03/01 12:18:46;;;;;;;4.92;1.50;;;17.50;53.00;;;;;;1974925;72;21067;-76
2021/03/01 12:21:13;;;;;;;2.08;1.45;;;17.30;52.50;;;;;;1967680;72;21050;-80
2021/03/01 12:23:39;;;;;;;4.00;1.60;;;17.10;53.60;;;;;;1974726;72;21545;-79
2021/03/01 12:26:07;;;;;;;2.15;1.25;;;17.60;53.90;;;;;;1974551;72;21479;-79
2021/03/01 12:28:33;;;;;;;8.03;1.40;;;18.20;52.50;;;;;;1974173;72;21032;-79
2021/03/01 12:30:59;;;;;;;4.55;1.37;;;18.10;53.00;;;;;;1974588;73;21149;-79
2021/03/01 12:33:25;;;;;;;2.40;1.35;;;17.60;54.00;;;;;;1970697;72;21071;-79
2021/03/01 12:35:51;;;;;;;2.02;1.12;;;18.40;53.20;;;;;;1973917;72;21058;-79
2021/03/01 12:38:17;;;;;;;1.82;1.40;;;18.20;52.90;;;;;;1967920;72;21049;-79
2021/03/01 12:40:43;;;;;;;2.47;1.20;;;18.00;54.30;;;;;;1972169;72;21098;-79